Terminal Aerodrome Forecast
Issued by NWS

Home | Current Version | Previous Version | Text Only | Print | Product List | Glossary On
Versions: 1 2 3 4 5 6 7 8 9 10 11 12 13 14 15 16 17 18 19 20 21
000
FTUS41 KBGM 211700
TAFITH
TAF
KITH 211731Z 2118/2218 16004KT P6SM -SHRA OVC020
     FM212100 36005KT 6SM BR SCT009 OVC015
      TEMPO 2202/2206 4SM BR OVC009
     FM221500 35006KT P6SM OVC015=

USA.gov is the U.S. government's official web portal to all federal, state and local government web resources and services.